sensor_id;sensor_type;location;lat;lon;timestamp;temperature;humidity
54178;DHT22;40085;53.004;6.770;2024-01-27T00:00:08;3.90;99.90
54178;DHT22;40085;53.004;6.770;2024-01-27T00:02:34;3.60;99.90
54178;DHT22;40085;53.004;6.770;2024-01-27T00:05:00;3.60;99.90
54178;DHT22;40085;53.004;6.770;2024-01-27T00:07:32;3.50;99.90
54178;DHT22;40085;53.004;6.770;2024-01-27T00:09:58;3.50;99.90
54178;DHT22;40085;53.004;6.770;2024-01-27T00:12:24;3.60;99.90
54178;DHT22;40085;53.004;6.770;2024-01-27T00:14:50;3.60;99.90
54178;DHT22;40085;53.004;6.770;2024-01-27T00:17:15;3.50;99.90
54178;DHT22;40085;53.004;6.770;2024-01-27T00:19:41;3.50;99.90
54178;DHT22;40085;53.004;6.770;2024-01-27T00:22:07;3.60;99.90
54178;DHT22;40085;53.004;6.770;2024-01-27T00:24:33;3.80;99.90
54178;DHT22;40085;53.004;6.770;2024-01-27T00:26:59;3.60;99.90
54178;DHT22;40085;53.004;6.770;2024-01-27T00:29:25;3.60;99.90
54178;DHT22;40085;53.004;6.770;2024-01-27T00:31:50;3.70;99.90
54178;DHT22;40085;53.004;6.770;2024-01-27T00:34:16;3.60;99.90
54178;DHT22;40085;53.004;6.770;2024-01-27T00:36:42;3.60;99.90
54178;DHT22;40085;53.004;6.770;2024-01-27T00:39:14;3.60;99.90
54178;DHT22;40085;53.004;6.770;2024-01-27T00:41:40;3.60;99.90
54178;DHT22;40085;53.004;6.770;2024-01-27T00:44:06;3.60;99.90
54178;DHT22;40085;53.004;6.770;2024-01-27T00:46:32;3.60;99.90
54178;DHT22;40085;53.004;6.770;2024-01-27T00:48:57;3.60;99.90
54178;DHT22;40085;53.004;6.770;2024-01-27T00:51:23;3.60;99.90
54178;DHT22;40085;53.004;6.770;2024-01-27T00:53:49;4.10;99.90
54178;DHT22;40085;53.004;6.770;2024-01-27T00:56:14;3.50;99.90
54178;DHT22;40085;53.004;6.770;2024-01-27T00:58:40;3.50;99.90
54178;DHT22;40085;53.004;6.770;2024-01-27T01:01:06;3.60;99.90
54178;DHT22;40085;53.004;6.770;2024-01-27T01:03:31;3.60;99.90
54178;DHT22;40085;53.004;6.770;2024-01-27T01:05:57;3.60;99.90
54178;DHT22;40085;53.004;6.770;2024-01-27T01:08:22;3.50;99.90
54178;DHT22;40085;53.004;6.770;2024-01-27T01:10:54;3.50;99.90
54178;DHT22;40085;53.004;6.770;2024-01-27T01:13:20;3.50;99.90
54178;DHT22;40085;53.004;6.770;2024-01-27T01:15:46;3.50;99.90
54178;DHT22;40085;53.004;6.770;2024-01-27T01:18:12;3.50;99.90
54178;DHT22;40085;53.004;6.770;2024-01-27T01:20:37;3.50;99.90
54178;DHT22;40085;53.004;6.770;2024-01-27T01:23:03;3.40;99.90
54178;DHT22;40085;53.004;6.770;2024-01-27T01:25:29;3.40;99.90
54178;DHT22;40085;53.004;6.770;2024-01-27T01:27:54;3.40;99.90
54178;DHT22;40085;53.004;6.770;2024-01-27T01:30:20;3.40;99.90
54178;DHT22;40085;53.004;6.770;2024-01-27T01:32:46;3.30;99.90
54178;DHT22;40085;53.004;6.770;2024-01-27T01:35:11;3.40;99.90
54178;DHT22;40085;53.004;6.770;2024-01-27T01:37:37;3.70;99.90
54178;DHT22;40085;53.004;6.770;2024-01-27T01:40:03;3.40;99.90
54178;DHT22;40085;53.004;6.770;2024-01-27T01:42:29;3.30;99.90
54178;DHT22;40085;53.004;6.770;2024-01-27T01:44:55;3.60;99.90
54178;DHT22;40085;53.004;6.770;2024-01-27T01:47:21;3.30;99.90
54178;DHT22;40085;53.004;6.770;2024-01-27T01:49:48;3.30;99.90
54178;DHT22;40085;53.004;6.770;2024-01-27T01:52:14;3.30;99.90
54178;DHT22;40085;53.004;6.770;2024-01-27T01:54:48;3.30;99.90
54178;DHT22;40085;53.004;6.770;2024-01-27T01:57:14;3.80;99.90
54178;DHT22;40085;53.004;6.770;2024-01-27T01:59:41;3.20;99.90
54178;DHT22;40085;53.004;6.770;2024-01-27T02:02:11;3.20;99.90
54178;DHT22;40085;53.004;6.770;2024-01-27T02:04:44;3.20;99.90
54178;DHT22;40085;53.004;6.770;2024-01-27T02:07:11;3.20;99.90
54178;DHT22;40085;53.004;6.770;2024-01-27T02:09:50;3.10;99.90
54178;DHT22;40085;53.004;6.770;2024-01-27T02:12:16;3.10;99.90
54178;DHT22;40085;53.004;6.770;2024-01-27T02:14:41;3.20;99.90
54178;DHT22;40085;53.004;6.770;2024-01-27T02:17:07;3.20;99.90
54178;DHT22;40085;53.004;6.770;2024-01-27T02:19:33;3.20;99.90
54178;DHT22;40085;53.004;6.770;2024-01-27T02:21:58;3.20;99.90
54178;DHT22;40085;53.004;6.770;2024-01-27T02:24:24;3.20;99.90
54178;DHT22;40085;53.004;6.770;2024-01-27T02:26:50;3.90;99.90
54178;DHT22;40085;53.004;6.770;2024-01-27T02:29:15;3.10;99.90
54178;DHT22;40085;53.004;6.770;2024-01-27T02:31:41;3.20;99.90
54178;DHT22;40085;53.004;6.770;2024-01-27T02:34:07;3.20;99.90
54178;DHT22;40085;53.004;6.770;2024-01-27T02:36:32;3.20;99.90
54178;DHT22;40085;53.004;6.770;2024-01-27T02:38:58;3.10;99.90
54178;DHT22;40085;53.004;6.770;2024-01-27T02:41:23;3.10;99.90
54178;DHT22;40085;53.004;6.770;2024-01-27T02:43:49;3.10;99.90
54178;DHT22;40085;53.004;6.770;2024-01-27T02:46:15;3.10;99.90
54178;DHT22;40085;53.004;6.770;2024-01-27T02:48:44;3.10;99.90
54178;DHT22;40085;53.004;6.770;2024-01-27T02:51:10;3.10;99.90
54178;DHT22;40085;53.004;6.770;2024-01-27T02:53:35;3.00;99.90
54178;DHT22;40085;53.004;6.770;2024-01-27T02:56:01;3.00;99.90
54178;DHT22;40085;53.004;6.770;2024-01-27T02:58:27;3.00;99.90
54178;DHT22;40085;53.004;6.770;2024-01-27T03:00:53;3.30;99.90
54178;DHT22;40085;53.004;6.770;2024-01-27T03:03:18;3.00;99.90
54178;DHT22;40085;53.004;6.770;2024-01-27T03:05:44;3.00;99.90
54178;DHT22;40085;53.004;6.770;2024-01-27T03:08:10;3.10;99.90
54178;DHT22;40085;53.004;6.770;2024-01-27T03:10:56;3.10;99.90
54178;DHT22;40085;53.004;6.770;2024-01-27T03:13:22;3.10;99.90
54178;DHT22;40085;53.004;6.770;2024-01-27T03:15:47;3.10;99.90
54178;DHT22;40085;53.004;6.770;2024-01-27T03:18:14;3.10;99.90
54178;DHT22;40085;53.004;6.770;2024-01-27T03:20:40;3.80;99.90
54178;DHT22;40085;53.004;6.770;2024-01-27T03:23:05;3.10;99.90
54178;DHT22;40085;53.004;6.770;2024-01-27T03:25:31;3.10;99.90
54178;DHT22;40085;53.004;6.770;2024-01-27T03:27:56;3.10;99.90
54178;DHT22;40085;53.004;6.770;2024-01-27T03:30:22;3.00;99.90
54178;DHT22;40085;53.004;6.770;2024-01-27T03:32:48;3.10;99.90
54178;DHT22;40085;53.004;6.770;2024-01-27T03:35:14;3.00;99.90
54178;DHT22;40085;53.004;6.770;2024-01-27T03:37:39;3.00;99.90
54178;DHT22;40085;53.004;6.770;2024-01-27T03:40:05;2.80;99.90
54178;DHT22;40085;53.004;6.770;2024-01-27T03:42:31;3.00;99.90
54178;DHT22;40085;53.004;6.770;2024-01-27T03:44:57;2.90;99.90
54178;DHT22;40085;53.004;6.770;2024-01-27T03:47:23;2.90;99.90
54178;DHT22;40085;53.004;6.770;2024-01-27T03:49:48;2.90;99.90
54178;DHT22;40085;53.004;6.770;2024-01-27T03:52:14;3.00;99.90
54178;DHT22;40085;53.004;6.770;2024-01-27T03:54:40;2.90;99.90
54178;DHT22;40085;53.004;6.770;2024-01-27T03:57:05;2.90;99.90
54178;DHT22;40085;53.004;6.770;2024-01-27T03:59:31;2.90;99.90
54178;DHT22;40085;53.004;6.770;2024-01-27T04:01:57;2.90;99.90
54178;DHT22;40085;53.004;6.770;2024-01-27T04:04:22;2.90;99.90
54178;DHT22;40085;53.004;6.770;2024-01-27T04:06:49;3.70;99.90
54178;DHT22;40085;53.004;6.770;2024-01-27T04:09:35;2.90;99.90
54178;DHT22;40085;53.004;6.770;2024-01-27T04:12:00;2.90;99.90
54178;DHT22;40085;53.004;6.770;2024-01-27T04:14:26;2.90;99.90
54178;DHT22;40085;53.004;6.770;2024-01-27T04:16:52;2.90;99.90
54178;DHT22;40085;53.004;6.770;2024-01-27T04:19:18;2.90;99.90
54178;DHT22;40085;53.004;6.770;2024-01-27T04:21:43;2.90;99.90
54178;DHT22;40085;53.004;6.770;2024-01-27T04:24:09;2.90;99.90
54178;DHT22;40085;53.004;6.770;2024-01-27T04:26:35;2.90;99.90
54178;DHT22;40085;53.004;6.770;2024-01-27T04:29:00;2.90;99.90
54178;DHT22;40085;53.004;6.770;2024-01-27T04:31:26;2.90;99.90
54178;DHT22;40085;53.004;6.770;2024-01-27T04:33:51;2.80;99.90
54178;DHT22;40085;53.004;6.770;2024-01-27T04:36:27;3.30;99.90
54178;DHT22;40085;53.004;6.770;2024-01-27T04:38:53;2.90;99.90
54178;DHT22;40085;53.004;6.770;2024-01-27T04:41:19;2.90;99.90
54178;DHT22;40085;53.004;6.770;2024-01-27T04:43:44;2.80;99.90
54178;DHT22;40085;53.004;6.770;2024-01-27T04:46:10;2.80;99.90
54178;DHT22;40085;53.004;6.770;2024-01-27T04:48:35;2.80;99.90
54178;DHT22;40085;53.004;6.770;2024-01-27T04:51:01;2.80;99.90
54178;DHT22;40085;53.004;6.770;2024-01-27T04:53:27;2.80;99.90
54178;DHT22;40085;53.004;6.770;2024-01-27T04:55:52;2.70;99.90
54178;DHT22;40085;53.004;6.770;2024-01-27T04:58:18;2.80;99.90
54178;DHT22;40085;53.004;6.770;2024-01-27T05:00:43;2.70;99.90
54178;DHT22;40085;53.004;6.770;2024-01-27T05:03:09;3.30;99.90
54178;DHT22;40085;53.004;6.770;2024-01-27T05:05:44;2.60;99.90
54178;DHT22;40085;53.004;6.770;2024-01-27T05:08:09;2.60;99.90
54178;DHT22;40085;53.004;6.770;2024-01-27T05:10:42;2.80;99.90
54178;DHT22;40085;53.004;6.770;2024-01-27T05:13:08;2.60;99.90
54178;DHT22;40085;53.004;6.770;2024-01-27T05:15:33;2.50;99.90
54178;DHT22;40085;53.004;6.770;2024-01-27T05:17:59;2.50;99.90
54178;DHT22;40085;53.004;6.770;2024-01-27T05:20:25;2.50;99.90
54178;DHT22;40085;53.004;6.770;2024-01-27T05:22:50;2.50;99.90
54178;DHT22;40085;53.004;6.770;2024-01-27T05:25:16;2.50;99.90
54178;DHT22;40085;53.004;6.770;2024-01-27T05:27:42;2.40;99.90
54178;DHT22;40085;53.004;6.770;2024-01-27T05:30:08;2.50;99.90
54178;DHT22;40085;53.004;6.770;2024-01-27T05:32:34;2.50;99.90
54178;DHT22;40085;53.004;6.770;2024-01-27T05:34:59;2.50;99.90
54178;DHT22;40085;53.004;6.770;2024-01-27T05:37:25;2.90;99.90
54178;DHT22;40085;53.004;6.770;2024-01-27T05:39:51;2.40;99.90
54178;DHT22;40085;53.004;6.770;2024-01-27T05:42:17;2.40;99.90
54178;DHT22;40085;53.004;6.770;2024-01-27T05:44:42;2.40;99.90
54178;DHT22;40085;53.004;6.770;2024-01-27T05:47:08;3.20;99.90
54178;DHT22;40085;53.004;6.770;2024-01-27T05:49:36;2.40;99.90
54178;DHT22;40085;53.004;6.770;2024-01-27T05:52:02;2.40;99.90
54178;DHT22;40085;53.004;6.770;2024-01-27T05:54:28;2.40;99.90
54178;DHT22;40085;53.004;6.770;2024-01-27T05:56:53;2.40;99.90
54178;DHT22;40085;53.004;6.770;2024-01-27T05:59:19;2.40;99.90
54178;DHT22;40085;53.004;6.770;2024-01-27T06:01:45;2.40;99.90
54178;DHT22;40085;53.004;6.770;2024-01-27T06:04:11;2.40;99.90
54178;DHT22;40085;53.004;6.770;2024-01-27T06:06:39;2.40;99.90
54178;DHT22;40085;53.004;6.770;2024-01-27T06:09:19;2.40;99.90
54178;DHT22;40085;53.004;6.770;2024-01-27T06:11:44;2.40;99.90
54178;DHT22;40085;53.004;6.770;2024-01-27T06:14:11;2.40;99.90
54178;DHT22;40085;53.004;6.770;2024-01-27T06:16:36;2.40;99.90
54178;DHT22;40085;53.004;6.770;2024-01-27T06:19:02;2.40;99.90
54178;DHT22;40085;53.004;6.770;2024-01-27T06:21:27;2.50;99.90
54178;DHT22;40085;53.004;6.770;2024-01-27T06:23:53;2.50;99.90
54178;DHT22;40085;53.004;6.770;2024-01-27T06:26:19;2.50;99.90
54178;DHT22;40085;53.004;6.770;2024-01-27T06:28:46;2.50;99.90
54178;DHT22;40085;53.004;6.770;2024-01-27T06:31:12;2.50;99.90
54178;DHT22;40085;53.004;6.770;2024-01-27T06:33:40;2.50;99.90
54178;DHT22;40085;53.004;6.770;2024-01-27T06:36:05;2.50;99.90
54178;DHT22;40085;53.004;6.770;2024-01-27T06:38:33;2.60;99.90
54178;DHT22;40085;53.004;6.770;2024-01-27T06:40:59;2.60;99.90
54178;DHT22;40085;53.004;6.770;2024-01-27T06:43:25;2.50;99.90
54178;DHT22;40085;53.004;6.770;2024-01-27T06:45:50;3.10;99.90
54178;DHT22;40085;53.004;6.770;2024-01-27T06:48:16;2.70;99.90
54178;DHT22;40085;53.004;6.770;2024-01-27T06:50:41;2.50;99.90
54178;DHT22;40085;53.004;6.770;2024-01-27T06:53:07;2.50;99.90
54178;DHT22;40085;53.004;6.770;2024-01-27T06:55:33;3.10;99.90
54178;DHT22;40085;53.004;6.770;2024-01-27T06:57:58;2.50;99.90
54178;DHT22;40085;53.004;6.770;2024-01-27T07:00:24;2.50;99.90
54178;DHT22;40085;53.004;6.770;2024-01-27T07:02:50;2.60;99.90
54178;DHT22;40085;53.004;6.770;2024-01-27T07:05:15;2.50;99.90
54178;DHT22;40085;53.004;6.770;2024-01-27T07:07:41;2.50;99.90
54178;DHT22;40085;53.004;6.770;2024-01-27T07:10:27;2.50;99.90
54178;DHT22;40085;53.004;6.770;2024-01-27T07:12:52;2.50;99.90
54178;DHT22;40085;53.004;6.770;2024-01-27T07:15:18;2.50;99.90
54178;DHT22;40085;53.004;6.770;2024-01-27T07:17:45;2.50;99.90
54178;DHT22;40085;53.004;6.770;2024-01-27T07:20:11;2.70;99.90
54178;DHT22;40085;53.004;6.770;2024-01-27T07:22:37;2.50;99.90
54178;DHT22;40085;53.004;6.770;2024-01-27T07:25:03;2.60;99.90
54178;DHT22;40085;53.004;6.770;2024-01-27T07:27:29;2.50;99.90
54178;DHT22;40085;53.004;6.770;2024-01-27T07:29:54;2.60;99.90
54178;DHT22;40085;53.004;6.770;2024-01-27T07:32:20;2.60;99.90
54178;DHT22;40085;53.004;6.770;2024-01-27T07:34:46;2.60;99.90
54178;DHT22;40085;53.004;6.770;2024-01-27T07:37:12;2.60;99.90
54178;DHT22;40085;53.004;6.770;2024-01-27T07:39:38;2.80;99.90
54178;DHT22;40085;53.004;6.770;2024-01-27T07:42:03;2.60;99.90
54178;DHT22;40085;53.004;6.770;2024-01-27T07:44:29;2.60;99.90
54178;DHT22;40085;53.004;6.770;2024-01-27T07:46:55;2.70;99.90
54178;DHT22;40085;53.004;6.770;2024-01-27T07:49:20;2.60;99.90
54178;DHT22;40085;53.004;6.770;2024-01-27T07:51:46;2.60;99.90
54178;DHT22;40085;53.004;6.770;2024-01-27T07:54:12;2.70;99.90
54178;DHT22;40085;53.004;6.770;2024-01-27T07:56:38;2.70;99.90
54178;DHT22;40085;53.004;6.770;2024-01-27T07:59:03;2.70;99.90
54178;DHT22;40085;53.004;6.770;2024-01-27T08:01:29;2.80;99.90
54178;DHT22;40085;53.004;6.770;2024-01-27T08:03:55;2.80;99.90
54178;DHT22;40085;53.004;6.770;2024-01-27T08:06:28;2.80;99.90
54178;DHT22;40085;53.004;6.770;2024-01-27T08:08:54;2.80;99.90
54178;DHT22;40085;53.004;6.770;2024-01-27T08:11:27;2.90;99.90
54178;DHT22;40085;53.004;6.770;2024-01-27T08:13:52;2.90;99.90
54178;DHT22;40085;53.004;6.770;2024-01-27T08:16:19;3.00;99.90
54178;DHT22;40085;53.004;6.770;2024-01-27T08:18:45;3.00;99.90
54178;DHT22;40085;53.004;6.770;2024-01-27T08:21:11;3.00;99.90
54178;DHT22;40085;53.004;6.770;2024-01-27T08:23:39;3.80;99.90
54178;DHT22;40085;53.004;6.770;2024-01-27T08:26:05;3.10;99.90
54178;DHT22;40085;53.004;6.770;2024-01-27T08:28:30;3.10;99.90
54178;DHT22;40085;53.004;6.770;2024-01-27T08:30:56;3.20;99.90
54178;DHT22;40085;53.004;6.770;2024-01-27T08:33:21;3.20;99.90
54178;DHT22;40085;53.004;6.770;2024-01-27T08:35:47;3.60;99.90
54178;DHT22;40085;53.004;6.770;2024-01-27T08:38:17;3.30;99.90
54178;DHT22;40085;53.004;6.770;2024-01-27T08:40:43;3.40;99.90
54178;DHT22;40085;53.004;6.770;2024-01-27T08:43:08;3.40;99.90
54178;DHT22;40085;53.004;6.770;2024-01-27T08:45:39;3.40;99.90
54178;DHT22;40085;53.004;6.770;2024-01-27T08:48:06;3.50;99.90
54178;DHT22;40085;53.004;6.770;2024-01-27T08:50:32;3.50;99.90
54178;DHT22;40085;53.004;6.770;2024-01-27T08:52:58;4.20;99.90
54178;DHT22;40085;53.004;6.770;2024-01-27T08:55:23;3.60;99.90
54178;DHT22;40085;53.004;6.770;2024-01-27T08:57:53;3.60;99.90
54178;DHT22;40085;53.004;6.770;2024-01-27T09:00:19;3.70;99.90
54178;DHT22;40085;53.004;6.770;2024-01-27T09:02:44;3.70;99.90
54178;DHT22;40085;53.004;6.770;2024-01-27T09:05:10;3.80;99.90
54178;DHT22;40085;53.004;6.770;2024-01-27T09:07:36;3.80;99.90
54178;DHT22;40085;53.004;6.770;2024-01-27T09:10:15;3.90;99.90
54178;DHT22;40085;53.004;6.770;2024-01-27T09:12:41;4.00;99.90
54178;DHT22;40085;53.004;6.770;2024-01-27T09:15:07;4.00;99.90
54178;DHT22;40085;53.004;6.770;2024-01-27T09:17:33;4.10;99.90
54178;DHT22;40085;53.004;6.770;2024-01-27T09:19:59;4.20;99.90
54178;DHT22;40085;53.004;6.770;2024-01-27T09:22:24;4.20;99.90
54178;DHT22;40085;53.004;6.770;2024-01-27T09:24:51;4.20;99.90
54178;DHT22;40085;53.004;6.770;2024-01-27T09:27:17;4.30;99.90
54178;DHT22;40085;53.004;6.770;2024-01-27T09:29:43;4.30;99.90
54178;DHT22;40085;53.004;6.770;2024-01-27T09:32:08;4.40;99.90
54178;DHT22;40085;53.004;6.770;2024-01-27T09:34:34;4.50;99.90
54178;DHT22;40085;53.004;6.770;2024-01-27T09:37:00;4.50;99.90
54178;DHT22;40085;53.004;6.770;2024-01-27T09:39:26;5.00;99.90
54178;DHT22;40085;53.004;6.770;2024-01-27T09:41:53;4.60;99.90
54178;DHT22;40085;53.004;6.770;2024-01-27T09:44:19;4.70;99.90
54178;DHT22;40085;53.004;6.770;2024-01-27T09:46:46;4.70;99.90
54178;DHT22;40085;53.004;6.770;2024-01-27T09:49:14;4.80;99.90
54178;DHT22;40085;53.004;6.770;2024-01-27T09:51:41;4.80;99.90
54178;DHT22;40085;53.004;6.770;2024-01-27T09:54:07;4.90;99.90
54178;DHT22;40085;53.004;6.770;2024-01-27T09:56:34;5.00;99.90
54178;DHT22;40085;53.004;6.770;2024-01-27T09:59:00;5.00;99.90
54178;DHT22;40085;53.004;6.770;2024-01-27T10:01:27;5.10;99.90
54178;DHT22;40085;53.004;6.770;2024-01-27T10:03:54;5.10;99.90
54178;DHT22;40085;53.004;6.770;2024-01-27T10:06:23;5.10;99.90
54178;DHT22;40085;53.004;6.770;2024-01-27T10:08:54;5.20;99.90
54178;DHT22;40085;53.004;6.770;2024-01-27T10:11:27;5.80;99.90
54178;DHT22;40085;53.004;6.770;2024-01-27T10:13:57;5.60;99.90
54178;DHT22;40085;53.004;6.770;2024-01-27T10:16:25;5.40;99.90
54178;DHT22;40085;53.004;6.770;2024-01-27T10:19:01;5.40;99.90
54178;DHT22;40085;53.004;6.770;2024-01-27T10:21:27;5.40;99.90
54178;DHT22;40085;53.004;6.770;2024-01-27T10:23:53;5.50;99.90
54178;DHT22;40085;53.004;6.770;2024-01-27T10:26:19;5.50;99.90
54178;DHT22;40085;53.004;6.770;2024-01-27T10:28:57;5.60;99.90
54178;DHT22;40085;53.004;6.770;2024-01-27T10:31:30;5.60;99.90
54178;DHT22;40085;53.004;6.770;2024-01-27T10:33:56;5.70;99.90
54178;DHT22;40085;53.004;6.770;2024-01-27T10:36:23;5.70;99.90
54178;DHT22;40085;53.004;6.770;2024-01-27T10:38:49;6.20;99.90
54178;DHT22;40085;53.004;6.770;2024-01-27T10:41:22;5.80;99.90
54178;DHT22;40085;53.004;6.770;2024-01-27T10:43:51;5.90;99.90
54178;DHT22;40085;53.004;6.770;2024-01-27T10:46:21;6.40;99.90
54178;DHT22;40085;53.004;6.770;2024-01-27T10:48:57;6.00;99.90
54178;DHT22;40085;53.004;6.770;2024-01-27T10:51:33;6.00;99.90
54178;DHT22;40085;53.004;6.770;2024-01-27T10:54:02;6.10;99.90
54178;DHT22;40085;53.004;6.770;2024-01-27T10:56:32;6.10;99.90
54178;DHT22;40085;53.004;6.770;2024-01-27T10:58:58;6.20;99.90
54178;DHT22;40085;53.004;6.770;2024-01-27T11:01:24;6.30;99.90
54178;DHT22;40085;53.004;6.770;2024-01-27T11:03:52;6.30;99.90
54178;DHT22;40085;53.004;6.770;2024-01-27T11:06:22;6.40;99.90
54178;DHT22;40085;53.004;6.770;2024-01-27T11:08:49;7.00;99.90
54178;DHT22;40085;53.004;6.770;2024-01-27T11:11:22;6.50;99.90
54178;DHT22;40085;53.004;6.770;2024-01-27T11:13:48;6.50;99.90
54178;DHT22;40085;53.004;6.770;2024-01-27T11:16:16;6.60;99.90
54178;DHT22;40085;53.004;6.770;2024-01-27T11:18:43;6.70;99.90
54178;DHT22;40085;53.004;6.770;2024-01-27T11:21:15;6.80;99.90
54178;DHT22;40085;53.004;6.770;2024-01-27T11:23:42;6.80;99.90
54178;DHT22;40085;53.004;6.770;2024-01-27T11:26:09;6.90;99.90
54178;DHT22;40085;53.004;6.770;2024-01-27T11:28:36;7.00;99.90
54178;DHT22;40085;53.004;6.770;2024-01-27T11:31:08;7.00;99.90
54178;DHT22;40085;53.004;6.770;2024-01-27T11:33:41;7.10;99.90
54178;DHT22;40085;53.004;6.770;2024-01-27T11:36:26;7.20;99.90
54178;DHT22;40085;53.004;6.770;2024-01-27T11:38:52;7.30;99.90
54178;DHT22;40085;53.004;6.770;2024-01-27T11:41:29;7.30;99.90
54178;DHT22;40085;53.004;6.770;2024-01-27T11:43:56;7.70;99.90
54178;DHT22;40085;53.004;6.770;2024-01-27T11:46:23;7.90;99.90
54178;DHT22;40085;53.004;6.770;2024-01-27T11:48:49;8.40;99.90
54178;DHT22;40085;53.004;6.770;2024-01-27T11:51:14;8.40;99.90
54178;DHT22;40085;53.004;6.770;2024-01-27T11:53:40;8.60;99.90
54178;DHT22;40085;53.004;6.770;2024-01-27T11:56:06;8.70;99.90
54178;DHT22;40085;53.004;6.770;2024-01-27T11:58:33;8.60;99.90
54178;DHT22;40085;53.004;6.770;2024-01-27T12:01:15;8.70;99.90
54178;DHT22;40085;53.004;6.770;2024-01-27T12:13:59;10.20;99.90
54178;DHT22;40085;53.004;6.770;2024-01-27T12:16:25;10.30;99.90
54178;DHT22;40085;53.004;6.770;2024-01-27T12:18:54;10.50;99.90
54178;DHT22;40085;53.004;6.770;2024-01-27T12:21:20;10.50;99.90
54178;DHT22;40085;53.004;6.770;2024-01-27T12:23:53;10.70;99.90
54178;DHT22;40085;53.004;6.770;2024-01-27T12:26:22;10.50;99.90
54178;DHT22;40085;53.004;6.770;2024-01-27T12:28:48;10.60;99.90
54178;DHT22;40085;53.004;6.770;2024-01-27T12:31:18;10.60;99.90
54178;DHT22;40085;53.004;6.770;2024-01-27T12:33:51;10.40;99.90
54178;DHT22;40085;53.004;6.770;2024-01-27T12:36:18;10.30;99.90
54178;DHT22;40085;53.004;6.770;2024-01-27T12:38:59;10.50;99.90
54178;DHT22;40085;53.004;6.770;2024-01-27T12:41:25;10.20;99.90
54178;DHT22;40085;53.004;6.770;2024-01-27T12:43:52;9.80;99.90
54178;DHT22;40085;53.004;6.770;2024-01-27T12:46:18;9.60;99.90
54178;DHT22;40085;53.004;6.770;2024-01-27T12:48:45;9.40;99.90
54178;DHT22;40085;53.004;6.770;2024-01-27T12:51:10;9.40;99.90
54178;DHT22;40085;53.004;6.770;2024-01-27T12:53:39;9.10;99.90
54178;DHT22;40085;53.004;6.770;2024-01-27T12:56:08;9.00;99.90
54178;DHT22;40085;53.004;6.770;2024-01-27T12:58:34;8.90;99.90
54178;DHT22;40085;53.004;6.770;2024-01-27T13:01:00;8.70;99.90
54178;DHT22;40085;53.004;6.770;2024-01-27T13:03:26;8.60;99.90
54178;DHT22;40085;53.004;6.770;2024-01-27T13:05:53;8.50;99.90
54178;DHT22;40085;53.004;6.770;2024-01-27T13:08:24;8.50;99.90
54178;DHT22;40085;53.004;6.770;2024-01-27T13:11:03;8.40;99.90
54178;DHT22;40085;53.004;6.770;2024-01-27T13:13:29;8.40;99.90
54178;DHT22;40085;53.004;6.770;2024-01-27T13:15:55;8.40;99.90
54178;DHT22;40085;53.004;6.770;2024-01-27T13:18:20;8.40;99.90
54178;DHT22;40085;53.004;6.770;2024-01-27T13:20:46;8.40;99.90
54178;DHT22;40085;53.004;6.770;2024-01-27T13:23:12;8.30;99.90
54178;DHT22;40085;53.004;6.770;2024-01-27T13:25:37;8.30;99.90
54178;DHT22;40085;53.004;6.770;2024-01-27T13:28:03;8.30;99.90
54178;DHT22;40085;53.004;6.770;2024-01-27T13:30:29;8.20;99.90
54178;DHT22;40085;53.004;6.770;2024-01-27T13:32:54;8.20;99.90
54178;DHT22;40085;53.004;6.770;2024-01-27T13:35:20;8.10;99.90
54178;DHT22;40085;53.004;6.770;2024-01-27T13:37:46;8.20;99.90
54178;DHT22;40085;53.004;6.770;2024-01-27T13:40:13;8.80;99.90
54178;DHT22;40085;53.004;6.770;2024-01-27T13:42:39;8.10;99.90
54178;DHT22;40085;53.004;6.770;2024-01-27T13:45:05;8.20;99.90
54178;DHT22;40085;53.004;6.770;2024-01-27T13:47:30;8.20;99.90
54178;DHT22;40085;53.004;6.770;2024-01-27T13:49:57;8.30;99.90
54178;DHT22;40085;53.004;6.770;2024-01-27T13:52:23;8.30;99.90
54178;DHT22;40085;53.004;6.770;2024-01-27T13:54:48;8.30;99.90
54178;DHT22;40085;53.004;6.770;2024-01-27T13:57:15;8.30;99.90
54178;DHT22;40085;53.004;6.770;2024-01-27T13:59:41;8.40;99.90
54178;DHT22;40085;53.004;6.770;2024-01-27T14:02:07;8.30;99.90
54178;DHT22;40085;53.004;6.770;2024-01-27T14:04:32;8.70;99.90
54178;DHT22;40085;53.004;6.770;2024-01-27T14:07:00;8.40;99.90
54178;DHT22;40085;53.004;6.770;2024-01-27T14:09:37;8.40;99.90
54178;DHT22;40085;53.004;6.770;2024-01-27T14:12:04;8.40;99.90
54178;DHT22;40085;53.004;6.770;2024-01-27T14:14:30;8.30;99.90
54178;DHT22;40085;53.004;6.770;2024-01-27T14:16:57;8.30;99.90
54178;DHT22;40085;53.004;6.770;2024-01-27T14:19:22;8.20;99.90
54178;DHT22;40085;53.004;6.770;2024-01-27T14:21:48;8.20;99.90
54178;DHT22;40085;53.004;6.770;2024-01-27T14:24:14;8.20;99.90
54178;DHT22;40085;53.004;6.770;2024-01-27T14:26:40;8.10;99.90
54178;DHT22;40085;53.004;6.770;2024-01-27T14:29:05;8.20;99.90
54178;DHT22;40085;53.004;6.770;2024-01-27T14:31:32;8.20;99.90
54178;DHT22;40085;53.004;6.770;2024-01-27T14:33:57;8.20;99.90
54178;DHT22;40085;53.004;6.770;2024-01-27T14:36:24;8.20;99.90
54178;DHT22;40085;53.004;6.770;2024-01-27T14:38:51;8.10;99.90
54178;DHT22;40085;53.004;6.770;2024-01-27T14:41:17;8.10;99.90
54178;DHT22;40085;53.004;6.770;2024-01-27T14:43:42;8.00;99.90
54178;DHT22;40085;53.004;6.770;2024-01-27T14:46:08;8.00;99.90
54178;DHT22;40085;53.004;6.770;2024-01-27T14:48:34;7.90;99.90
54178;DHT22;40085;53.004;6.770;2024-01-27T14:51:00;7.90;99.90
54178;DHT22;40085;53.004;6.770;2024-01-27T14:53:26;7.80;99.90
54178;DHT22;40085;53.004;6.770;2024-01-27T14:55:53;7.70;99.90
54178;DHT22;40085;53.004;6.770;2024-01-27T14:58:19;7.70;99.90
54178;DHT22;40085;53.004;6.770;2024-01-27T15:00:45;7.70;99.90
54178;DHT22;40085;53.004;6.770;2024-01-27T15:03:21;7.70;99.90
54178;DHT22;40085;53.004;6.770;2024-01-27T15:05:47;7.70;99.90
54178;DHT22;40085;53.004;6.770;2024-01-27T15:08:15;7.50;99.90
54178;DHT22;40085;53.004;6.770;2024-01-27T15:11:01;7.60;99.90
54178;DHT22;40085;53.004;6.770;2024-01-27T15:13:27;7.50;99.90
54178;DHT22;40085;53.004;6.770;2024-01-27T15:15:53;7.50;99.90
54178;DHT22;40085;53.004;6.770;2024-01-27T15:18:19;7.50;99.90
54178;DHT22;40085;53.004;6.770;2024-01-27T15:20:44;7.40;99.90
54178;DHT22;40085;53.004;6.770;2024-01-27T15:23:10;7.50;99.90
54178;DHT22;40085;53.004;6.770;2024-01-27T15:25:36;7.30;99.90
54178;DHT22;40085;53.004;6.770;2024-01-27T15:28:01;7.20;99.90
54178;DHT22;40085;53.004;6.770;2024-01-27T15:30:27;7.20;99.90
54178;DHT22;40085;53.004;6.770;2024-01-27T15:32:53;7.10;99.90
54178;DHT22;40085;53.004;6.770;2024-01-27T15:35:19;7.00;99.90
54178;DHT22;40085;53.004;6.770;2024-01-27T15:37:44;6.90;99.90
54178;DHT22;40085;53.004;6.770;2024-01-27T15:40:10;6.80;99.90
54178;DHT22;40085;53.004;6.770;2024-01-27T15:42:36;6.70;99.90
54178;DHT22;40085;53.004;6.770;2024-01-27T15:45:04;6.70;99.90
54178;DHT22;40085;53.004;6.770;2024-01-27T15:47:30;6.60;99.90
54178;DHT22;40085;53.004;6.770;2024-01-27T15:49:55;6.50;99.90
54178;DHT22;40085;53.004;6.770;2024-01-27T15:52:28;6.40;99.90